Time;durP1;ratioP1;P1;durP2;ratioP2;P2;SDS_P1;SDS_P2;PMS_P1;PMS_P2;Temp;Humidity;BMP_temperature;BMP_pressure;BME280_temperature;BME280_humidity;BME280_pressure;Samples;Min_cycle;Max_cycle;Signal;HPM_P1;HPM_P2
2023/12/21 00:01:11;;;;;;;;;5.00;2.00;;;;;11.02;77.90;100999.97;5000790;27;45206;-88
2023/12/21 00:03:37;;;;;;;;;2.00;2.00;;;;;11.17;78.89;101030.25;5015672;27;45383;-90
2023/12/21 00:06:03;;;;;;;;;1.00;1.00;;;;;11.28;78.92;101043.03;4981924;28;45317;-84
2023/12/21 00:08:29;;;;;;;;;3.67;1.33;;;;;11.17;78.94;101007.16;4978962;28;45590;-86
2023/12/21 00:10:54;;;;;;;;;2.67;1.00;;;;;11.37;78.81;101026.56;5002000;28;46338;-86
2023/12/21 00:13:20;;;;;;;;;2.33;1.00;;;;;11.39;78.55;101022.03;4984900;28;44674;-87
2023/12/21 00:15:46;;;;;;;;;4.67;1.00;;;;;11.47;78.48;101011.84;4984612;28;45428;-86
2023/12/21 00:18:11;;;;;;;;;3.00;1.00;;;;;11.47;78.62;101014.50;4979712;28;45553;-88
2023/12/21 00:20:36;;;;;;;;;2.00;1.00;;;;;11.33;79.07;101001.03;4980138;27;45828;-86
2023/12/21 00:23:02;;;;;;;;;2.33;1.00;;;;;11.40;79.68;101024.59;4979084;28;45307;-86
2023/12/21 00:25:27;;;;;;;;;1.33;1.33;;;;;11.26;79.69;100986.34;4990446;28;45350;-86
2023/12/21 00:27:55;;;;;;;;;0.33;0.33;;;;;11.15;80.29;100977.09;4999433;28;45529;-88
2023/12/21 00:30:20;;;;;;;;;0.00;0.00;;;;;11.33;80.22;101009.91;5016341;27;47927;-90
2023/12/21 00:32:46;;;;;;;;;0.67;0.00;;;;;11.30;80.55;100990.53;4994415;28;45250;-87
2023/12/21 00:35:12;;;;;;;;;2.00;1.00;;;;;11.31;81.07;101000.25;4990498;28;44821;-87
2023/12/21 00:37:38;;;;;;;;;0.00;0.00;;;;;11.21;81.51;100991.91;4998885;28;45234;-89
2023/12/21 00:40:05;;;;;;;;;2.00;2.00;;;;;11.13;81.24;100962.16;5001283;28;45323;-88
2023/12/21 00:42:32;;;;;;;;;1.00;1.00;;;;;11.26;81.58;100991.66;4985637;28;45445;-89
2023/12/21 00:44:58;;;;;;;;;0.00;0.00;;;;;11.14;81.58;100975.38;4987818;28;45374;-87
2023/12/21 00:47:23;;;;;;;;;0.67;0.67;;;;;10.94;81.09;100930.34;5002195;28;44812;-86
2023/12/21 00:49:49;;;;;;;;;1.00;1.00;;;;;11.27;81.30;100990.72;5015429;27;47678;-87
2023/12/21 00:52:14;;;;;;;;;2.00;2.00;;;;;11.29;81.09;100988.81;4983228;27;45409;-86
2023/12/21 00:54:40;;;;;;;;;0.33;0.33;;;;;11.24;80.91;100967.78;4987486;28;45578;-88
2023/12/21 00:57:05;;;;;;;;;1.33;1.33;;;;;11.06;81.20;100934.97;4999608;28;45288;-89
2023/12/21 00:59:30;;;;;;;;;2.00;1.00;;;;;11.17;81.24;100950.41;4979803;28;45309;-89
2023/12/21 01:01:56;;;;;;;;;1.67;1.33;;;;;11.13;81.24;100932.88;4978088;28;51700;-91
2023/12/21 01:04:21;;;;;;;;;1.00;1.00;;;;;11.15;81.10;100925.66;5007098;28;45707;-91
2023/12/21 01:06:47;;;;;;;;;1.00;1.00;;;;;11.30;80.69;100948.81;4980144;28;45341;-88
2023/12/21 01:09:12;;;;;;;;;0.33;0.33;;;;;11.39;80.81;100964.28;4980144;28;45439;-88
2023/12/21 01:11:37;;;;;;;;;2.33;1.00;;;;;11.35;80.42;100951.25;4980881;28;45320;-87
2023/12/21 01:14:03;;;;;;;;;3.00;1.67;;;;;11.08;80.59;100917.16;4980788;28;44702;-87
2023/12/21 01:16:28;;;;;;;;;3.33;2.00;;;;;11.15;80.97;100926.53;4983186;28;45218;-87
2023/12/21 01:18:54;;;;;;;;;3.00;2.00;;;;;11.28;81.41;100944.50;4983094;28;46085;-88
2023/12/21 01:21:19;;;;;;;;;3.00;1.33;;;;;11.16;81.19;100912.25;4996543;28;45271;-87
2023/12/21 01:23:46;;;;;;;;;1.00;1.00;;;;;11.22;81.06;100930.59;4989938;28;45394;-87
2023/12/21 01:26:11;;;;;;;;;1.00;1.00;;;;;11.18;80.90;100917.50;5001665;28;45712;-90
2023/12/21 01:28:36;;;;;;;;;1.33;0.67;;;;;11.39;80.77;100936.81;4987085;27;45583;-88
2023/12/21 01:31:02;;;;;;;;;1.00;1.00;;;;;11.36;81.15;100931.66;4978879;28;45297;-88
2023/12/21 01:33:27;;;;;;;;;0.00;0.00;;;;;11.31;81.18;100923.03;4978737;28;45684;-88
2023/12/21 01:35:52;;;;;;;;;2.33;1.67;;;;;11.17;80.98;100895.34;4979312;28;45532;-88
2023/12/21 01:38:18;;;;;;;;;2.67;1.00;;;;;11.20;80.93;100900.53;4977605;28;47129;-89
2023/12/21 01:40:43;;;;;;;;;1.33;1.00;;;;;11.22;81.58;100903.97;4980258;28;45448;-87
2023/12/21 01:43:08;;;;;;;;;0.00;0.00;;;;;11.38;81.44;100913.78;4994381;27;45338;-89
2023/12/21 01:45:33;;;;;;;;;2.67;0.00;;;;;11.35;81.05;100903.31;4994245;27;48695;-87
2023/12/21 01:47:59;;;;;;;;;0.67;0.00;;;;;10.97;81.26;100858.31;4987775;27;56655;-87
2023/12/21 01:50:25;;;;;;;;;0.00;0.00;;;;;11.17;81.57;100889.16;4989687;28;45605;-91
2023/12/21 01:52:53;;;;;;;;;2.33;0.00;;;;;11.33;81.69;100900.72;4980414;28;45322;-89
2023/12/21 01:55:18;;;;;;;;;0.00;0.00;;;;;11.07;81.67;100848.91;4980703;28;45479;-87
2023/12/21 01:57:44;;;;;;;;;1.67;1.00;;;;;11.32;81.16;100885.66;4980383;28;45398;-86
2023/12/21 02:00:11;;;;;;;;;0.00;0.00;;;;;10.99;81.60;100826.28;4979299;28;45300;-91
2023/12/21 02:02:36;;;;;;;;;1.00;1.00;;;;;11.26;81.82;100871.84;4977546;28;45382;-90
2023/12/21 02:05:01;;;;;;;;;0.33;0.33;;;;;11.31;81.62;100880.44;4978689;28;45568;-87
2023/12/21 02:07:27;;;;;;;;;0.00;0.00;;;;;11.19;81.83;100845.53;4976832;28;47166;-89
2023/12/21 02:09:52;;;;;;;;;0.00;0.00;;;;;11.30;82.04;100838.78;4977606;28;45343;-88
2023/12/21 02:12:17;;;;;;;;;0.00;0.00;;;;;11.36;82.02;100862.41;4977197;28;45410;-85
2023/12/21 02:14:43;;;;;;;;;0.00;0.00;;;;;11.28;82.55;100854.84;4988211;28;46236;-87
2023/12/21 02:17:15;;;;;;;;;0.00;0.00;;;;;11.23;82.47;100841.78;4991888;28;59409;-88
2023/12/21 02:19:41;;;;;;;;;1.00;1.00;;;;;11.31;82.73;100848.47;4995932;28;45272;-85
2023/12/21 02:22:07;;;;;;;;;2.00;0.00;;;;;11.31;82.50;100848.47;5011226;28;45448;-88
2023/12/21 02:24:33;;;;;;;;;1.67;0.00;;;;;11.31;83.03;100843.16;5003191;27;45567;-87
2023/12/21 02:26:59;;;;;;;;;2.00;0.67;;;;;11.32;82.65;100837.75;4976967;28;46477;-87
2023/12/21 02:29:25;;;;;;;;;0.00;0.00;;;;;11.26;83.25;100830.09;4978882;28;45462;-87
2023/12/21 02:31:51;;;;;;;;;0.00;0.00;;;;;11.35;82.75;100847.38;4991418;28;45232;-88
2023/12/21 02:34:16;;;;;;;;;1.00;0.00;;;;;11.34;83.48;100843.00;4980585;28;45176;-87
2023/12/21 02:36:41;;;;;;;;;0.00;0.00;;;;;11.22;83.40;100837.41;4978519;28;46505;-88
2023/12/21 02:39:07;;;;;;;;;1.00;0.00;;;;;11.29;83.42;100845.03;4996346;28;48205;-87
2023/12/21 02:41:32;;;;;;;;;0.00;0.00;;;;;11.36;83.68;100862.41;4996723;28;45245;-88
2023/12/21 02:43:57;;;;;;;;;2.00;1.00;;;;;11.31;83.50;100843.16;4994081;28;45259;-86
2023/12/21 02:46:25;;;;;;;;;0.00;0.00;;;;;11.35;83.33;100844.72;4996410;28;45636;-86
2023/12/21 02:48:51;;;;;;;;;0.00;0.00;;;;;11.33;83.77;100822.63;4991403;28;45316;-87
2023/12/21 02:51:17;;;;;;;;;0.00;0.00;;;;;11.38;83.89;100836.56;4992249;27;45376;-89
2023/12/21 02:53:42;;;;;;;;;0.67;0.00;;;;;11.31;83.82;100828.03;4992389;28;45623;-86
2023/12/21 02:56:07;;;;;;;;;1.33;0.00;;;;;11.28;83.91;100812.25;4977260;28;46005;-86
2023/12/21 02:58:33;;;;;;;;;0.00;0.00;;;;;11.31;83.98;100812.06;4977000;28;45474;-90
2023/12/21 03:00:58;;;;;;;;;0.00;0.00;;;;;11.37;83.88;100806.41;4976785;28;45599;-88
2023/12/21 03:03:23;;;;;;;;;0.00;0.00;;;;;11.49;84.10;100823.50;4977132;28;45409;-88
2023/12/21 03:05:49;;;;;;;;;0.00;0.00;;;;;11.20;85.05;100775.41;4991912;28;51711;-86
2023/12/21 03:08:14;;;;;;;;;0.00;0.00;;;;;11.45;84.61;100813.94;4978417;28;45407;-89
2023/12/21 03:10:39;;;;;;;;;0.00;0.00;;;;;11.40;85.05;100816.03;4985213;28;50443;-88
2023/12/21 03:13:05;;;;;;;;;1.00;1.00;;;;;11.21;85.78;100782.44;4992448;27;45382;-89
2023/12/21 03:15:31;;;;;;;;;0.00;0.00;;;;;11.38;85.56;100812.59;4995007;28;46020;-87
2023/12/21 03:17:57;;;;;;;;;1.00;1.00;;;;;11.33;86.14;100818.19;4982899;27;45151;-88
2023/12/21 03:20:22;;;;;;;;;2.00;0.00;;;;;11.37;85.98;100821.53;4980456;28;45248;-89
2023/12/21 03:22:48;;;;;;;;;0.00;0.00;;;;;11.32;85.25;100796.94;4976850;28;45157;-88
2023/12/21 03:25:14;;;;;;;;;0.00;0.00;;;;;11.25;86.32;100784.94;4989251;28;45312;-87
2023/12/21 03:27:39;;;;;;;;;0.00;0.00;;;;;11.34;85.57;100795.09;4995445;27;45471;-89
2023/12/21 03:30:05;;;;;;;;;0.00;0.00;;;;;11.18;86.10;100771.09;4996518;27;45413;-88
2023/12/21 03:32:33;;;;;;;;;0.00;0.00;;;;;11.28;86.55;100790.94;4995264;28;45569;-89
2023/12/21 03:34:59;;;;;;;;;0.00;0.00;;;;;11.18;86.26;100768.44;4995006;28;45471;-89
2023/12/21 03:37:28;;;;;;;;;0.00;0.00;;;;;11.31;87.02;100779.25;4996286;28;45400;-87
2023/12/21 03:39:56;;;;;;;;;0.00;0.00;;;;;11.33;86.71;100772.03;4997072;28;45293;-86
2023/12/21 03:42:21;;;;;;;;;0.00;0.00;;;;;11.33;86.72;100778.25;4996307;28;45359;-87
2023/12/21 03:44:47;;;;;;;;;0.00;0.00;;;;;11.26;86.96;100774.19;4994586;28;45407;-88
2023/12/21 03:47:12;;;;;;;;;0.00;0.00;;;;;11.27;88.12;100783.03;4996725;27;45224;-86
2023/12/21 03:49:37;;;;;;;;;0.00;0.00;;;;;11.30;87.49;100772.22;5010960;27;53353;-88
2023/12/21 03:52:03;;;;;;;;;0.00;0.00;;;;;11.31;87.44;100766.78;4997320;27;45351;-88
2023/12/21 03:54:28;;;;;;;;;0.00;0.00;;;;;10.96;88.12;100699.59;5010598;27;48262;-87
2023/12/21 03:56:53;;;;;;;;;0.00;0.00;;;;;10.98;87.27;100699.50;4996220;28;53666;-87
2023/12/21 03:59:19;;;;;;;;;0.00;0.00;;;;;11.26;87.06;100733.41;4996445;28;45331;-88
2023/12/21 04:01:44;;;;;;;;;0.00;0.00;;;;;11.21;87.19;100710.56;4992968;28;45368;-88
2023/12/21 04:04:09;;;;;;;;;0.00;0.00;;;;;11.21;86.94;100699.94;4993888;28;45457;-86
2023/12/21 04:06:35;;;;;;;;;0.00;0.00;;;;;11.25;86.75;100684.63;4996794;27;45352;-86
2023/12/21 04:09:00;;;;;;;;;0.00;0.00;;;;;11.24;86.82;100674.94;5000381;27;45322;-87
2023/12/21 04:11:25;;;;;;;;;0.00;0.00;;;;;11.28;87.29;100672.94;5010142;27;45338;-88
2023/12/21 04:13:51;;;;;;;;;2.00;0.00;;;;;11.33;86.75;100673.50;4995563;27;49785;-87
2023/12/21 04:16:16;;;;;;;;;0.00;0.00;;;;;11.31;87.34;100672.75;4996450;28;45321;-86
2023/12/21 04:18:41;;;;;;;;;0.00;0.00;;;;;11.33;87.37;100666.41;4998507;28;56798;-85
2023/12/21 04:21:07;;;;;;;;;0.00;0.00;;;;;11.28;87.87;100667.63;4996942;28;45632;-86
2023/12/21 04:23:33;;;;;;;;;0.00;0.00;;;;;11.30;88.07;100679.88;4996425;28;45335;-86
2023/12/21 04:25:59;;;;;;;;;0.00;0.00;;;;;11.32;87.45;100690.44;4995256;28;45553;-86
2023/12/21 04:28:24;;;;;;;;;0.00;0.00;;;;;11.20;87.65;100666.28;4995523;27;45285;-87
2023/12/21 04:30:49;;;;;;;;;0.00;0.00;;;;;11.35;87.59;100691.16;4992996;28;45559;-85
2023/12/21 04:33:16;;;;;;;;;1.00;0.00;;;;;11.06;86.98;100625.38;4994855;28;46313;-89
2023/12/21 04:35:46;;;;;;;;;0.33;0.00;;;;;11.35;86.67;100669.00;5011793;27;45533;-88
2023/12/21 04:38:14;;;;;;;;;0.00;0.00;;;;;11.22;86.62;100639.56;4989153;28;45350;-88
2023/12/21 04:40:39;;;;;;;;;0.00;0.00;;;;;11.45;86.32;100671.00;4979642;28;45539;-87
2023/12/21 04:43:08;;;;;;;;;1.00;0.00;;;;;11.44;86.19;100658.63;4977901;28;61886;-89
2023/12/21 04:45:33;;;;;;;;;0.00;0.00;;;;;11.35;85.86;100643.22;4979206;28;45428;-87
2023/12/21 04:47:58;;;;;;;;;0.00;0.00;;;;;11.40;86.02;100642.94;4988640;28;49072;-87
2023/12/21 04:50:24;;;;;;;;;1.00;0.00;;;;;11.48;85.73;100638.88;4992596;28;45337;-89
2023/12/21 04:52:51;;;;;;;;;0.00;0.00;;;;;11.52;85.77;100636.91;4984321;28;45245;-87
2023/12/21 04:55:17;;;;;;;;;0.00;0.00;;;;;11.61;86.66;100655.00;4980244;28;45269;-87
2023/12/21 04:57:42;;;;;;;;;0.00;0.00;;;;;11.56;87.26;100665.06;4985757;28;45410;-87
2023/12/21 05:00:08;;;;;;;;;0.67;0.00;;;;;11.48;87.78;100665.53;5001042;28;45242;-88
2023/12/21 05:02:34;;;;;;;;;1.00;0.00;;;;;11.43;87.97;100651.59;4998293;28;46503;-88
2023/12/21 05:05:00;;;;;;;;;0.00;0.00;;;;;11.56;87.81;100657.06;5002075;28;45338;-86
2023/12/21 05:07:25;;;;;;;;;0.00;0.00;;;;;11.48;87.79;100635.38;4991620;27;45471;-86
2023/12/21 05:09:51;;;;;;;;;0.00;0.00;;;;;11.48;87.80;100648.69;4998404;27;45386;-87
2023/12/21 05:12:17;;;;;;;;;0.00;0.00;;;;;11.32;87.87;100610.56;5001057;28;46411;-91
2023/12/21 05:14:43;;;;;;;;;0.00;0.00;;;;;11.39;88.00;100615.44;4998947;27;45259;-91
2023/12/21 05:17:08;;;;;;;;;0.00;0.00;;;;;11.42;87.94;100617.06;5012044;27;45745;-87
2023/12/21 05:19:34;;;;;;;;;1.00;0.00;;;;;11.49;87.58;100634.41;4999558;28;45447;-89
2023/12/21 05:21:59;;;;;;;;;1.00;0.00;;;;;11.56;87.18;100630.44;4998188;27;46032;-90
2023/12/21 05:24:24;;;;;;;;;0.00;0.00;;;;;11.54;86.89;100629.66;4998336;27;45304;-92
2023/12/21 05:26:50;;;;;;;;;1.00;1.00;;;;;11.54;86.66;100627.00;4997704;28;45323;-91
2023/12/21 05:29:15;;;;;;;;;0.00;0.00;;;;;11.57;87.09;100634.81;4992620;28;45563;-90
2023/12/21 05:31:42;;;;;;;;;0.67;0.00;;;;;11.53;86.60;100615.50;4989479;28;56440;-88
2023/12/21 05:34:07;;;;;;;;;0.67;0.00;;;;;11.62;86.48;100630.06;4997544;27;45434;-86
2023/12/21 05:36:33;;;;;;;;;0.00;0.00;;;;;11.56;86.81;100618.91;4999400;28;45455;-87
2023/12/21 05:38:58;;;;;;;;;0.00;0.00;;;;;11.58;86.54;100627.66;4995449;28;45387;-87
2023/12/21 05:41:23;;;;;;;;;0.00;0.00;;;;;11.41;86.70;100602.03;4996845;28;53088;-87
2023/12/21 05:43:49;;;;;;;;;0.00;0.00;;;;;11.52;87.01;100612.91;4997899;27;45316;-86
2023/12/21 05:46:15;;;;;;;;;1.00;0.00;;;;;11.48;86.59;100606.06;4999675;28;45268;-86
2023/12/21 05:48:40;;;;;;;;;0.00;0.00;;;;;11.64;86.53;100622.84;4995838;28;45532;-86
2023/12/21 05:51:05;;;;;;;;;0.00;0.00;;;;;11.63;86.79;100612.28;4995203;27;45894;-86
2023/12/21 05:53:32;;;;;;;;;0.00;0.00;;;;;11.56;86.81;100586.94;4996304;28;45215;-85
2023/12/21 05:55:58;;;;;;;;;0.00;0.00;;;;;11.39;86.53;100546.22;4996764;28;45493;-84
2023/12/21 05:58:23;;;;;;;;;0.00;0.00;;;;;11.49;86.49;100565.16;4996388;28;45644;-88
2023/12/21 06:00:48;;;;;;;;;0.00;0.00;;;;;11.65;86.33;100581.09;4990211;27;46970;-87
2023/12/21 06:03:14;;;;;;;;;0.00;0.00;;;;;11.45;87.10;100553.81;4977920;28;45313;-85
2023/12/21 06:05:39;;;;;;;;;0.00;0.00;;;;;11.57;87.79;100564.69;4978672;28;45335;-88
2023/12/21 06:08:05;;;;;;;;;0.00;0.00;;;;;11.55;87.62;100559.47;4979631;28;45402;-87
2023/12/21 06:10:31;;;;;;;;;0.00;0.00;;;;;11.61;87.03;100568.91;4978579;28;45427;-88
2023/12/21 06:12:56;;;;;;;;;0.00;0.00;;;;;11.53;87.24;100558.69;4983869;27;45346;-89
2023/12/21 06:15:22;;;;;;;;;0.00;0.00;;;;;11.50;87.13;100542.91;5012955;28;53205;-89
2023/12/21 06:17:47;;;;;;;;;0.00;0.00;;;;;11.67;86.97;100580.03;4994169;27;45149;-90
2023/12/21 06:20:13;;;;;;;;;0.00;0.00;;;;;11.66;86.89;100588.97;4979927;28;45370;-86
2023/12/21 06:22:38;;;;;;;;;1.00;1.00;;;;;11.43;86.84;100545.06;4981835;28;45251;-90
2023/12/21 06:25:04;;;;;;;;;1.67;0.67;;;;;11.66;87.19;100573.00;4977129;28;45265;-90
2023/12/21 06:27:29;;;;;;;;;0.00;0.00;;;;;11.53;87.04;100566.69;4996884;28;45253;-89
2023/12/21 06:29:55;;;;;;;;;0.00;0.00;;;;;11.53;86.41;100567.53;4997728;27;47083;-87
2023/12/21 06:32:20;;;;;;;;;0.00;0.00;;;;;11.69;86.53;100590.59;4999950;28;45890;-86
2023/12/21 06:34:47;;;;;;;;;0.00;0.00;;;;;11.57;86.13;100570.03;5001202;28;45593;-89
2023/12/21 06:37:12;;;;;;;;;0.00;0.00;;;;;11.42;86.06;100564.66;5010852;28;45148;-88
2023/12/21 06:39:38;;;;;;;;;0.00;0.00;;;;;11.78;85.76;100606.88;5008929;27;45521;-88
2023/12/21 06:42:04;;;;;;;;;1.00;1.00;;;;;11.41;85.76;100551.44;5005442;28;45348;-87
2023/12/21 06:44:32;;;;;;;;;0.00;0.00;;;;;11.78;85.50;100606.88;4993996;27;44823;-92
2023/12/21 06:46:57;;;;;;;;;0.00;0.00;;;;;11.58;85.61;100553.94;4989168;28;45224;-89
2023/12/21 06:49:23;;;;;;;;;0.00;0.00;;;;;11.80;85.43;100602.34;4985262;28;47003;-83
2023/12/21 06:51:48;;;;;;;;;0.00;0.00;;;;;11.63;85.56;100562.53;4994002;28;45416;-87
2023/12/21 06:54:14;;;;;;;;;0.00;0.00;;;;;11.74;85.66;100591.19;4993745;27;49428;-87
2023/12/21 06:56:39;;;;;;;;;0.00;0.00;;;;;11.72;85.12;100587.75;5011185;27;45354;-85
2023/12/21 06:59:05;;;;;;;;;0.00;0.00;;;;;11.72;84.90;100588.63;4988415;28;45453;-85
2023/12/21 07:01:30;;;;;;;;;1.00;0.00;;;;;11.82;84.97;100595.13;5010577;27;53028;-91
2023/12/21 07:03:56;;;;;;;;;0.00;0.00;;;;;11.76;85.30;100565.31;4994873;27;45241;-87
2023/12/21 07:06:22;;;;;;;;;2.67;1.00;;;;;11.82;84.93;100581.78;4997581;27;45890;-89
2023/12/21 07:08:47;;;;;;;;;0.00;0.00;;;;;11.67;85.21;100558.72;4993751;27;46871;-88
2023/12/21 07:11:13;;;;;;;;;0.00;0.00;;;;;11.91;84.99;100614.16;4988568;27;48988;-90
2023/12/21 07:13:38;;;;;;;;;0.00;0.00;;;;;11.72;84.88;100587.75;4978940;28;45393;-88
2023/12/21 07:16:05;;;;;;;;;0.00;0.00;;;;;11.86;85.25;100600.28;4997068;27;45555;-88
2023/12/21 07:18:30;;;;;;;;;0.00;0.00;;;;;11.88;84.94;100614.34;4980178;27;45975;-91
2023/12/21 07:20:57;;;;;;;;;0.67;0.00;;;;;11.75;84.89;100572.44;5008680;27;45589;-90
2023/12/21 07:23:23;;;;;;;;;0.67;0.67;;;;;11.94;84.62;100603.31;4995266;28;45332;-87
2023/12/21 07:25:48;;;;;;;;;0.00;0.00;;;;;11.87;84.76;100578.00;4985091;28;45476;-87
2023/12/21 07:28:16;;;;;;;;;0.00;0.00;;;;;11.99;84.29;100579.91;4978808;28;46273;-87
2023/12/21 07:30:42;;;;;;;;;0.67;0.00;;;;;11.90;84.92;100585.81;4977555;28;45392;-88
2023/12/21 07:33:09;;;;;;;;;0.00;0.00;;;;;11.84;84.94;100589.69;4977507;28;45439;-88
2023/12/21 07:35:34;;;;;;;;;0.00;0.00;;;;;12.02;85.83;100601.03;4978040;28;45460;-87
2023/12/21 07:37:59;;;;;;;;;0.00;0.00;;;;;11.78;85.89;100558.91;4976738;27;45447;-87
2023/12/21 07:40:24;;;;;;;;;0.00;0.00;;;;;12.13;85.86;100593.25;4976753;28;45244;-88
2023/12/21 07:42:50;;;;;;;;;0.00;0.00;;;;;11.97;84.69;100549.81;4975132;28;45395;-88
2023/12/21 07:45:15;;;;;;;;;0.33;0.00;;;;;11.96;85.01;100553.44;4991974;28;45576;-88
2023/12/21 07:47:40;;;;;;;;;0.00;0.00;;;;;12.13;84.97;100581.72;4978291;28;45299;-87
2023/12/21 07:50:06;;;;;;;;;0.00;0.00;;;;;12.00;84.82;100560.31;4979723;28;45397;-88
2023/12/21 07:52:31;;;;;;;;;1.00;1.00;;;;;12.09;85.27;100581.88;4979078;28;45170;-90
2023/12/21 07:54:57;;;;;;;;;0.00;0.00;;;;;12.03;85.28;100562.78;4976428;28;45358;-90
2023/12/21 07:57:23;;;;;;;;;0.00;0.00;;;;;12.16;84.74;100576.19;4977546;28;46969;-86
2023/12/21 07:59:51;;;;;;;;;0.00;0.00;;;;;12.10;84.46;100556.94;4986159;27;45367;-87
2023/12/21 08:02:17;;;;;;;;;0.00;0.00;;;;;12.02;84.75;100547.72;5008398;28;45464;-90
2023/12/21 08:04:43;;;;;;;;;1.00;1.00;;;;;12.19;85.27;100586.66;5013984;27;45683;-90
2023/12/21 08:07:09;;;;;;;;;0.00;0.00;;;;;12.20;84.89;100565.22;5002883;27;46742;-89
2023/12/21 08:09:34;;;;;;;;;0.00;0.00;;;;;12.01;84.47;100535.34;4998544;27;45325;-90
2023/12/21 08:11:59;;;;;;;;;0.00;0.00;;;;;11.95;84.64;100519.72;4995405;28;45325;-87
2023/12/21 08:14:28;;;;;;;;;0.00;0.00;;;;;12.18;84.66;100544.94;4992827;28;45322;-86
2023/12/21 08:16:53;;;;;;;;;0.00;0.00;;;;;12.24;84.48;100532.09;4993037;28;46032;-83
2023/12/21 08:19:18;;;;;;;;;1.00;1.00;;;;;12.18;84.57;100521.81;4993505;27;45258;-84
2023/12/21 08:21:44;;;;;;;;;0.67;0.67;;;;;12.27;84.61;100547.91;5009243;27;45529;-82
2023/12/21 08:24:10;;;;;;;;;0.00;0.00;;;;;12.28;84.36;100544.28;5029446;27;46420;-84
2023/12/21 08:26:35;;;;;;;;;1.00;1.00;;;;;12.25;84.41;100523.16;4998362;27;46564;-86
2023/12/21 08:29:00;;;;;;;;;0.00;0.00;;;;;12.36;84.02;100528.63;4995646;28;45248;-81
2023/12/21 08:31:26;;;;;;;;;0.33;0.00;;;;;12.30;84.09;100520.16;4994816;28;45401;-86
2023/12/21 08:33:52;;;;;;;;;2.33;0.00;;;;;12.33;83.71;100526.16;5023938;28;45522;-86
2023/12/21 08:36:17;;;;;;;;;0.00;0.00;;;;;12.36;83.71;100520.63;4999196;28;45963;-82
2023/12/21 08:38:43;;;;;;;;;2.00;1.33;;;;;12.32;84.12;100507.59;4997904;27;45343;-87
2023/12/21 08:41:08;;;;;;;;;1.67;1.67;;;;;12.39;84.41;100522.25;4997674;28;45400;-81
2023/12/21 08:43:35;;;;;;;;;1.00;1.00;;;;;12.41;84.12;100539.00;5000509;28;45487;-83
2023/12/21 08:46:01;;;;;;;;;0.33;0.33;;;;;12.43;83.98;100545.09;5003299;28;45430;-86
2023/12/21 08:48:26;;;;;;;;;0.00;0.00;;;;;12.11;83.82;100493.84;5001714;28;45468;-82
2023/12/21 08:50:52;;;;;;;;;1.00;1.00;;;;;12.43;84.06;100552.25;4997954;28;45765;-80
2023/12/21 08:53:17;;;;;;;;;0.00;0.00;;;;;12.40;84.51;100556.81;4995991;28;45650;-84
2023/12/21 08:55:42;;;;;;;;;1.00;0.00;;;;;12.39;84.43;100541.78;4994495;28;46235;-82
2023/12/21 08:58:08;;;;;;;;;0.00;0.00;;;;;12.33;83.84;100526.16;4995056;27;45224;-83
2023/12/21 09:00:33;;;;;;;;;0.00;0.00;;;;;12.51;84.36;100577.47;4995993;28;45453;-82
2023/12/21 09:02:58;;;;;;;;;0.00;0.00;;;;;12.44;84.71;100549.47;4996784;28;45250;-84
2023/12/21 09:05:23;;;;;;;;;0.00;0.00;;;;;12.46;84.11;100552.03;5000823;28;55346;-84
2023/12/21 09:07:49;;;;;;;;;0.00;0.00;;;;;12.51;84.47;100564.13;4995989;28;45844;-83
2023/12/21 09:10:14;;;;;;;;;0.00;0.00;;;;;12.47;84.63;100564.41;5003721;27;45501;-83
2023/12/21 09:12:40;;;;;;;;;0.00;0.00;;;;;12.52;84.36;100554.31;5015521;27;45190;-83
2023/12/21 09:15:06;;;;;;;;;0.00;0.00;;;;;12.50;84.54;100542.88;5016165;28;45610;-83
2023/12/21 09:17:31;;;;;;;;;0.00;0.00;;;;;12.61;84.42;100556.38;4996538;28;45262;-82
2023/12/21 09:19:57;;;;;;;;;0.00;0.00;;;;;12.62;84.22;100552.75;5007538;28;45434;-83
2023/12/21 09:22:22;;;;;;;;;1.00;0.00;;;;;12.65;84.33;100560.56;5079933;27;45769;-87
2023/12/21 09:24:48;;;;;;;;;0.00;0.00;;;;;12.65;84.18;100544.56;4998008;28;45246;-87
2023/12/21 09:27:14;;;;;;;;;0.00;0.00;;;;;12.68;83.91;100547.03;5032361;28;45598;-86
2023/12/21 09:29:40;;;;;;;;;0.00;0.00;;;;;12.69;84.48;100544.25;5020284;28;45409;-85
2023/12/21 09:32:06;;;;;;;;;0.00;0.00;;;;;12.73;84.38;100536.91;4977254;28;45270;-83
2023/12/21 09:34:31;;;;;;;;;0.00;0.00;;;;;12.72;84.43;100543.19;4976339;28;45314;-83
2023/12/21 09:36:57;;;;;;;;;1.00;0.00;;;;;12.74;84.61;100543.09;5001455;28;45366;-84
2023/12/21 09:39:22;;;;;;;;;0.33;0.33;;;;;12.67;84.93;100529.31;4993627;28;45488;-83
2023/12/21 09:41:47;;;;;;;;;0.00;0.00;;;;;12.62;85.55;100536.75;5008129;27;45368;-86
2023/12/21 09:44:17;;;;;;;;;1.00;1.00;;;;;12.62;85.21;100523.41;4999473;28;46360;-86
2023/12/21 09:46:46;;;;;;;;;0.00;0.00;;;;;12.74;85.48;100530.59;5005882;28;45464;-83
2023/12/21 09:49:14;;;;;;;;;0.00;0.00;;;;;12.73;85.65;100536.03;5015952;28;45508;-82
2023/12/21 09:51:41;;;;;;;;;0.00;0.00;;;;;12.68;86.30;100547.03;5010005;28;45494;-82
2023/12/21 09:54:08;;;;;;;;;1.00;1.00;;;;;12.71;85.94;100533.47;5000969;28;45324;-84
2023/12/21 09:56:34;;;;;;;;;0.00;0.00;;;;;12.69;85.87;100522.91;5013520;28;45480;-79
2023/12/21 09:59:01;;;;;;;;;0.67;0.67;;;;;12.63;85.92;100511.78;5004679;28;45365;-82
2023/12/21 10:01:26;;;;;;;;;0.00;0.00;;;;;12.67;86.05;100540.84;4999623;27;45361;-81
2023/12/21 10:03:52;;;;;;;;;0.00;0.00;;;;;12.72;86.28;100547.69;5007768;27;45485;-81
2023/12/21 10:06:18;;;;;;;;;9.67;7.00;;;;;12.66;86.73;100539.13;4995948;28;45319;-80
2023/12/21 10:08:43;;;;;;;;;0.00;0.00;;;;;12.62;86.47;100520.72;4996374;28;45459;-82
2023/12/21 10:11:09;;;;;;;;;2.00;0.67;;;;;12.56;86.01;100495.31;5000320;27;45239;-83
2023/12/21 10:13:35;;;;;;;;;0.00;0.00;;;;;12.78;86.86;100524.13;5017004;27;46215;-83
2023/12/21 10:16:03;;;;;;;;;1.00;1.00;;;;;12.79;86.71;100528.50;5002642;27;45468;-83
2023/12/21 10:18:29;;;;;;;;;0.00;0.00;;;;;12.76;86.39;100528.72;5011013;27;45468;-83
2023/12/21 10:20:55;;;;;;;;;1.33;1.33;;;;;12.75;86.30;100526.97;5011601;28;45487;-88
2023/12/21 10:23:21;;;;;;;;;0.00;0.00;;;;;12.77;86.86;100530.41;4998025;27;47054;-85
2023/12/21 10:25:47;;;;;;;;;0.00;0.00;;;;;12.70;86.89;100529.09;4978164;28;45437;-84
2023/12/21 10:28:12;;;;;;;;;1.00;1.00;;;;;12.71;87.22;100530.81;4991134;28;45232;-85
2023/12/21 10:30:38;;;;;;;;;0.00;0.00;;;;;12.64;86.68;100502.84;5011137;28;45582;-86
2023/12/21 10:33:03;;;;;;;;;0.33;0.33;;;;;12.72;87.16;100510.31;5018434;28;46449;-90
2023/12/21 10:35:29;;;;;;;;;1.67;0.00;;;;;12.75;87.24;100510.97;5018200;27;45224;-85
2023/12/21 10:37:54;;;;;;;;;0.00;0.00;;;;;12.73;87.09;100501.34;5001890;28;45256;-85
2023/12/21 10:40:22;;;;;;;;;0.00;0.00;;;;;12.83;86.81;100532.66;4997067;28;45470;-82
2023/12/21 10:42:51;;;;;;;;;0.33;0.33;;;;;12.79;87.12;100533.84;5001313;28;47731;-82
2023/12/21 10:45:18;;;;;;;;;4.00;1.00;;;;;12.78;87.18;100518.78;5004854;27;45538;-82
2023/12/21 10:47:50;;;;;;;;;0.00;0.00;;;;;12.71;87.27;100525.47;5006588;28;45189;-82
2023/12/21 10:50:16;;;;;;;;;1.67;0.67;;;;;12.79;86.84;100531.16;4996061;28;45388;-83
2023/12/21 10:52:44;;;;;;;;;0.00;0.00;;;;;12.73;86.95;100520.88;4993457;28;47185;-83
2023/12/21 10:55:10;;;;;;;;;1.00;1.00;;;;;12.80;87.06;100524.88;4996399;28;45247;-82
2023/12/21 10:57:40;;;;;;;;;0.33;0.33;;;;;12.80;86.34;100510.69;4997272;28;45451;-84
2023/12/21 11:00:12;;;;;;;;;1.00;1.00;;;;;12.85;86.47;100512.06;4996491;28;45425;-82
2023/12/21 11:02:48;;;;;;;;;0.00;0.00;;;;;12.80;86.22;100484.84;5015215;28;46130;-83
2023/12/21 11:05:19;;;;;;;;;0.00;0.00;;;;;12.87;86.59;100496.81;4995072;28;45459;-82
2023/12/21 11:07:55;;;;;;;;;0.67;0.67;;;;;12.92;86.29;100505.38;4995421;28;45470;-83
2023/12/21 11:10:22;;;;;;;;;2.00;2.00;;;;;12.89;86.04;100486.03;4998541;28;45153;-84
2023/12/21 11:12:48;;;;;;;;;2.00;2.00;;;;;12.93;86.01;100476.88;4999846;27;45507;-83
2023/12/21 11:15:18;;;;;;;;;2.33;1.00;;;;;12.95;85.72;100474.94;4995203;28;45498;-84
2023/12/21 11:17:49;;;;;;;;;2.33;1.67;;;;;12.93;85.95;100445.69;4995383;28;45471;-83